Time;durP1;ratioP1;P1;durP2;ratioP2;P2;SDS_P1;SDS_P2;PMS_P1;PMS_P2;Temp;Humidity;BMP_temperature;BMP_pressure;BME280_temperature;BME280_humidity;BME280_pressure;Samples;Min_cycle;Max_cycle;Signal;HPM_P1;HPM_P2
2022/11/03 00:02:01;;;;;;;15.10;10.15;;;;;;;18.50;49.33;93945.31;5036279;28;20022;-89
2022/11/03 00:04:27;;;;;;;13.50;9.25;;;;;;;18.49;49.12;93944.56;5056672;23;20044;-90
2022/11/03 00:06:53;;;;;;;13.30;9.77;;;;;;;18.49;49.25;93947.28;5015763;28;20041;-88
2022/11/03 00:09:19;;;;;;;14.45;10.07;;;;;;;18.49;49.55;93946.56;5055634;23;20044;-88
2022/11/03 00:11:45;;;;;;;13.88;9.82;;;;;;;18.50;48.86;93937.09;5072238;23;20060;-88
2022/11/03 00:14:11;;;;;;;15.48;9.70;;;;;;;18.47;48.81;93930.63;5056894;22;20049;-91
2022/11/03 00:19:05;;;;;;;13.98;9.80;;;;;;;18.49;49.33;93932.88;5126769;22;20036;-88
2022/11/03 00:21:31;;;;;;;13.10;9.15;;;;;;;18.48;49.65;93929.38;5079413;28;20032;-88
2022/11/03 00:24:06;;;;;;;14.05;10.52;;;;;;;18.48;49.72;93926.63;5085517;22;20040;-88
2022/11/03 00:26:53;;;;;;;13.65;9.20;;;;;;;18.48;49.43;93925.88;5098145;22;20047;-89
2022/11/03 00:29:20;;;;;;;15.45;9.13;;;;;;;18.48;49.39;93918.44;5084668;28;20044;-89
2022/11/03 00:31:45;;;;;;;13.60;8.80;;;;;;;18.48;49.63;93914.94;5055382;28;20033;-88
2022/11/03 00:34:14;;;;;;;12.30;8.35;;;;;;;18.47;49.46;93903.25;5119943;23;20050;-87
2022/11/03 00:36:49;;;;;;;10.43;7.88;;;;;;;18.47;49.40;93914.19;5061409;22;20064;-88
2022/11/03 00:39:14;;;;;;;13.45;9.20;;;;;;;18.47;49.07;93910.72;5070536;28;20112;-89
2022/11/03 00:41:40;;;;;;;14.40;9.32;;;;;;;18.48;48.94;93912.94;5059411;23;20025;-89
2022/11/03 00:44:05;;;;;;;11.23;8.60;;;;;;;18.47;49.35;93916.94;5037468;28;20045;-90
2022/11/03 00:46:34;;;;;;;13.45;8.98;;;;;;;18.48;49.66;93906.72;5041283;28;20059;-88
2022/11/03 00:49:00;;;;;;;12.90;8.60;;;;;;;18.46;49.51;93907.22;5072907;28;20041;-88
2022/11/03 00:51:26;;;;;;;12.35;8.77;;;;;;;18.47;49.10;93905.22;5047208;23;20580;-88
2022/11/03 00:53:53;;;;;;;13.40;9.65;;;;;;;18.46;49.79;93909.97;5013748;28;20032;-88
2022/11/03 00:56:21;;;;;;;13.40;9.13;;;;;;;18.47;49.50;93911.47;5058753;23;20055;-87
2022/11/03 00:58:47;;;;;;;11.27;8.35;;;;;;;18.47;49.43;93891.53;5031867;22;20032;-89
2022/11/03 01:01:24;;;;;;;11.60;7.68;;;;;;;18.47;49.35;93888.81;5036371;23;20097;-89
2022/11/03 01:08:59;;;;;;;11.73;8.60;;;;;;;18.45;49.35;93881.09;5077410;28;20113;-88
2022/11/03 01:11:43;;;;;;;11.00;7.70;;;;;;;18.46;49.24;93879.84;5056427;22;20026;-89
2022/11/03 01:14:09;;;;;;;12.27;8.00;;;;;;;18.44;48.86;93882.34;5017447;23;20025;-89
2022/11/03 01:16:35;;;;;;;12.75;8.13;;;;;;;18.45;49.40;93872.13;5107383;23;20511;-88
2022/11/03 01:19:00;;;;;;;10.20;7.43;;;;;;;18.44;49.42;93874.13;5071463;23;20029;-88
2022/11/03 01:21:26;;;;;;;10.70;7.60;;;;;;;18.43;49.52;93874.63;5064994;22;20029;-89
2022/11/03 01:23:51;;;;;;;10.05;7.70;;;;;;;18.46;49.35;93859.94;5069904;22;20025;-88
2022/11/03 01:26:16;;;;;;;10.60;7.40;;;;;;;18.46;49.09;93868.16;5038094;28;20028;-88
2022/11/03 01:28:43;;;;;;;11.90;8.65;;;;;;;18.44;48.96;93865.91;5041226;23;20130;-88
2022/11/03 01:31:12;;;;;;;12.10;8.15;;;;;;;18.43;48.90;93861.69;5073453;23;20041;-88
2022/11/03 01:33:37;;;;;;;11.05;7.38;;;;;;;18.45;49.34;93861.19;5035946;28;20072;-88
2022/11/03 01:36:03;;;;;;;11.52;7.65;;;;;;;18.43;49.05;93858.94;5042922;22;20143;-89
2022/11/03 01:38:33;;;;;;;12.15;8.15;;;;;;;18.44;49.54;93846.00;5031032;28;20030;-88
2022/11/03 01:40:59;;;;;;;10.55;7.90;;;;;;;18.42;49.37;93851.22;5126047;22;20042;-88
2022/11/03 01:43:26;;;;;;;12.05;7.72;;;;;;;18.43;49.39;93844.50;5073141;28;20025;-89
2022/11/03 01:45:57;;;;;;;11.00;7.78;;;;;;;18.43;49.21;93842.53;5073546;28;20073;-88
2022/11/03 01:48:23;;;;;;;10.88;7.65;;;;;;;18.44;49.40;93838.53;5201683;22;20036;-89
2022/11/03 01:50:52;;;;;;;11.27;8.50;;;;;;;18.43;49.37;93831.56;5078229;28;20047;-88
2022/11/03 01:53:18;;;;;;;10.80;7.32;;;;;;;18.42;49.69;93832.06;5102333;22;20060;-89
2022/11/03 01:55:43;;;;;;;12.10;7.72;;;;;;;18.41;48.94;93830.56;5035410;28;20040;-89
2022/11/03 01:58:22;;;;;;;9.80;6.90;;;;;;;18.41;49.34;93830.56;5053021;23;20052;-88
2022/11/03 02:00:51;;;;;;;11.32;7.55;;;;;;;18.40;49.23;93821.63;5039458;28;20040;-88
2022/11/03 02:03:16;;;;;;;11.30;7.22;;;;;;;18.42;49.42;93821.88;5050025;28;20075;-89
2022/11/03 02:05:45;;;;;;;9.55;7.40;;;;;;;18.41;49.42;93814.16;5062287;22;20025;-88
2022/11/03 02:08:13;;;;;;;11.18;7.78;;;;;;;18.42;49.07;93810.16;5090929;28;20055;-89
2022/11/03 02:10:47;;;;;;;10.40;6.78;;;;;;;18.42;49.52;93804.69;5038562;28;20052;-89
2022/11/03 02:13:20;;;;;;;9.55;7.03;;;;;;;18.41;49.59;93801.22;5105301;23;20043;-88
2022/11/03 02:15:47;;;;;;;11.30;7.30;;;;;;;18.41;49.53;93795.75;5098101;28;20035;-88
2022/11/03 02:18:13;;;;;;;9.43;7.03;;;;;;;18.41;49.60;93795.00;5085723;23;20056;-89
2022/11/03 02:20:38;;;;;;;9.75;7.03;;;;;;;18.41;49.45;93797.72;5035859;28;20017;-88
2022/11/03 02:23:11;;;;;;;10.52;7.07;;;;;;;18.40;49.63;93785.31;5019581;28;20051;-90
2022/11/03 02:25:50;;;;;;;9.45;7.05;;;;;;;18.41;49.40;93793.00;5063458;22;20024;-89
2022/11/03 02:28:41;;;;;;;11.25;7.35;;;;;;;18.41;49.58;93795.00;5037138;28;20067;-89
2022/11/03 02:31:09;;;;;;;9.32;6.53;;;;;;;18.40;49.69;93785.31;5013527;28;20050;-88
2022/11/03 02:33:52;;;;;;;8.75;6.43;;;;;;;18.40;49.35;93774.38;5000041;28;20037;-88
2022/11/03 02:36:45;;;;;;;9.32;7.45;;;;;;;18.38;49.71;93774.13;5037988;22;20127;-88
2022/11/03 02:39:30;;;;;;;9.80;6.63;;;;;;;18.40;49.24;93771.63;5044710;28;20017;-88
2022/11/03 02:41:57;;;;;;;10.32;7.30;;;;;;;18.38;49.61;93771.38;5120596;22;20050;-89
2022/11/03 02:44:24;;;;;;;11.27;6.90;;;;;;;18.39;49.27;93776.38;5078518;22;20037;-89
2022/11/03 02:46:55;;;;;;;9.15;6.90;;;;;;;18.38;49.23;93771.38;5065267;22;20078;-89
2022/11/03 02:49:20;;;;;;;8.35;6.10;;;;;;;18.39;49.25;93761.94;5091229;22;20097;-89
2022/11/03 02:51:46;;;;;;;7.93;6.47;;;;;;;18.38;49.65;93755.72;5047278;22;20021;-88
2022/11/03 02:54:18;;;;;;;8.60;6.90;;;;;;;18.38;49.48;93752.22;5055487;28;20525;-91
2022/11/03 02:57:00;;;;;;;9.30;6.30;;;;;;;18.36;49.46;93747.25;5072899;23;20071;-89
2022/11/03 02:59:26;;;;;;;9.00;6.65;;;;;;;18.41;49.16;93745.72;5062105;23;20048;-90
2022/11/03 03:02:06;;;;;;;9.00;7.13;;;;;;;18.40;49.65;93741.53;5077820;22;20037;-88
2022/11/03 03:04:48;;;;;;;7.78;6.22;;;;;;;18.38;49.16;93725.59;5086285;22;20060;-88
2022/11/03 03:07:16;;;;;;;8.88;6.47;;;;;;;18.37;49.63;93715.16;5059058;28;20027;-89
2022/11/03 03:10:07;;;;;;;8.80;5.95;;;;;;;18.37;49.22;93726.09;5046415;23;20038;-88
2022/11/03 03:12:37;;;;;;;7.28;5.38;;;;;;;18.36;49.22;93722.63;5055204;23;20063;-88
2022/11/03 03:15:03;;;;;;;9.20;6.50;;;;;;;18.37;49.75;93709.69;5087555;22;20036;-88
2022/11/03 03:17:43;;;;;;;10.10;5.97;;;;;;;18.35;49.27;93712.91;5072049;28;20028;-89
2022/11/03 03:20:16;;;;;;;8.18;5.82;;;;;;;18.36;49.56;93708.94;5069014;28;20039;-88
2022/11/03 03:22:50;;;;;;;11.13;6.68;;;;;;;18.36;49.31;93699.97;5078815;22;20059;-88
2022/11/03 03:25:23;;;;;;;11.40;6.78;;;;;;;18.35;49.51;93693.00;5087343;22;20056;-88
2022/11/03 03:27:50;;;;;;;11.38;6.20;;;;;;;18.35;49.36;93693.00;5089077;22;20023;-89
2022/11/03 03:30:15;;;;;;;9.05;5.82;;;;;;;18.35;49.17;93693.75;5072095;23;20103;-88
2022/11/03 03:32:45;;;;;;;9.38;5.82;;;;;;;18.34;49.34;93692.25;5073064;22;20011;-88
2022/11/03 03:35:16;;;;;;;6.47;5.45;;;;;;;18.35;49.54;93690.28;5068900;22;20025;-88
2022/11/03 03:37:43;;;;;;;7.05;5.22;;;;;;;18.34;49.00;93686.78;5138601;23;20054;-89
2022/11/03 03:40:10;;;;;;;8.77;5.90;;;;;;;18.34;49.30;93684.06;5077814;28;20040;-88
2022/11/03 03:42:48;;;;;;;8.30;6.10;;;;;;;18.34;49.76;93672.38;5076722;28;20016;-90
2022/11/03 03:45:13;;;;;;;8.90;5.72;;;;;;;18.34;49.53;93675.09;5078326;22;20025;-90
2022/11/03 03:47:39;;;;;;;8.27;5.53;;;;;;;18.33;49.68;93679.81;5056944;28;20052;-90
2022/11/03 03:50:05;;;;;;;8.02;5.53;;;;;;;18.34;49.04;93666.88;5056831;28;20021;-89
2022/11/03 03:52:32;;;;;;;7.25;5.45;;;;;;;18.35;49.38;93668.38;5058046;28;20044;-88
2022/11/03 03:54:58;;;;;;;8.55;5.90;;;;;;;18.34;49.48;93662.16;5041098;28;20021;-89
2022/11/03 03:57:23;;;;;;;8.52;5.53;;;;;;;18.34;49.53;93670.38;5056329;28;20047;-91
2022/11/03 03:59:49;;;;;;;7.32;4.95;;;;;;;18.32;49.39;93667.41;5056945;28;20167;-89
2022/11/03 04:02:14;;;;;;;6.75;5.38;;;;;;;18.32;49.56;93655.69;5054819;28;20046;-88
2022/11/03 04:04:40;;;;;;;6.85;5.25;;;;;;;18.31;49.66;93662.41;5055577;28;20037;-89
2022/11/03 04:09:49;;;;;;;7.13;5.63;;;;;;;18.32;49.58;93653.72;5045022;28;20130;-90
2022/11/03 04:23:14;;;;;;;6.35;5.03;;;;;;;18.33;49.26;93632.56;5049415;22;20141;-88
2022/11/03 04:25:39;;;;;;;6.75;4.82;;;;;;;18.33;49.02;93635.28;5028561;23;20122;-89
2022/11/03 04:28:11;;;;;;;5.72;5.03;;;;;;;18.31;49.38;93632.31;5038388;23;20045;-89
2022/11/03 04:30:37;;;;;;;7.55;4.97;;;;;;;18.32;49.38;93629.06;5091767;23;20426;-88
2022/11/03 04:33:04;;;;;;;8.45;5.72;;;;;;;18.31;49.40;93621.38;5090190;28;20047;-89
2022/11/03 04:35:29;;;;;;;8.23;5.47;;;;;;;18.31;49.40;93613.91;5072056;23;20057;-91
2022/11/03 04:37:59;;;;;;;6.65;5.25;;;;;;;18.29;49.17;93621.88;5039091;23;20080;-89
2022/11/03 04:40:24;;;;;;;6.72;5.35;;;;;;;18.30;48.53;93617.88;5015078;28;20029;-93
2022/11/03 04:42:50;;;;;;;8.00;4.88;;;;;;;18.30;48.85;93612.41;5027827;28;20033;-93
2022/11/03 04:45:23;;;;;;;9.85;5.63;;;;;;;18.29;48.73;93618.41;5013515;28;20052;-88
2022/11/03 04:47:49;;;;;;;8.35;5.35;;;;;;;18.32;49.17;93614.66;5022280;28;20037;-91
2022/11/03 04:50:18;;;;;;;8.20;4.57;;;;;;;18.32;48.76;93614.66;5024970;28;20546;-90
2022/11/03 04:52:43;;;;;;;8.25;5.13;;;;;;;18.33;48.82;93605.94;5015259;28;20056;-89
2022/11/03 04:55:17;;;;;;;7.25;5.38;;;;;;;18.35;48.79;93599.97;5042753;28;20077;-91
2022/11/03 04:57:44;;;;;;;7.05;4.88;;;;;;;18.36;49.06;93598.72;5021622;28;20124;-90
2022/11/03 05:00:16;;;;;;;6.30;4.90;;;;;;;18.37;48.96;93602.94;5054797;28;20037;-91
2022/11/03 05:02:43;;;;;;;7.40;5.10;;;;;;;18.34;49.33;93599.22;5040864;28;20029;-90
2022/11/03 05:05:18;;;;;;;6.75;4.97;;;;;;;18.36;49.03;93593.25;5028869;23;20048;-92
2022/11/03 05:07:43;;;;;;;7.63;5.13;;;;;;;18.30;49.03;93585.06;5011986;28;20033;-90
2022/11/03 05:10:21;;;;;;;7.13;4.90;;;;;;;18.29;48.42;93589.03;5021153;28;20711;-89
2022/11/03 05:12:50;;;;;;;7.32;4.47;;;;;;;18.31;49.60;93583.81;5088241;22;20042;-90
2022/11/03 05:15:30;;;;;;;7.43;5.07;;;;;;;18.28;49.08;93584.81;5090745;22;20446;-90
2022/11/03 05:17:55;;;;;;;6.40;4.63;;;;;;;18.29;49.14;93578.09;5037270;28;20037;-88
2022/11/03 05:20:32;;;;;;;6.10;4.15;;;;;;;18.25;48.79;93571.38;5031875;28;20041;-93
2022/11/03 05:22:57;;;;;;;6.95;4.47;;;;;;;18.26;48.67;93561.94;5014329;28;20052;-88
2022/11/03 05:25:33;;;;;;;6.70;4.70;;;;;;;18.24;48.79;93562.44;5051974;28;20045;-88
2022/11/03 05:27:59;;;;;;;7.18;4.53;;;;;;;18.27;49.10;93564.16;5036091;28;20040;-92
2022/11/03 05:30:24;;;;;;;12.55;4.35;;;;;;;18.28;49.01;93557.44;5034348;28;20030;-89
2022/11/03 05:32:57;;;;;;;15.77;10.45;;;;;;;18.33;49.28;93558.66;5031719;28;20068;-93
2022/11/03 05:35:23;;;;;;;22.92;15.73;;;;;;;18.34;49.62;93555.44;5033344;28;20089;-91
2022/11/03 05:37:49;;;;;;;17.77;11.60;;;;;;;18.36;49.33;93549.44;5026747;28;20052;-90
2022/11/03 05:40:23;;;;;;;12.23;6.82;;;;;;;18.40;49.34;93552.66;5039833;28;20041;-90
2022/11/03 05:42:59;;;;;;;46.72;37.30;;;;;;;18.38;48.92;93544.22;5044103;22;20499;-93
2022/11/03 05:45:32;;;;;;;24.45;18.75;;;;;;;18.38;48.81;93550.44;4988829;28;20250;-91
2022/11/03 05:48:22;;;;;;;47.40;23.88;;;;;;;18.38;48.69;93547.69;5019946;28;20026;-94
2022/11/03 05:50:47;;;;;;;19.50;11.93;;;;;;;18.39;48.89;93551.19;5041072;23;20488;-93
2022/11/03 05:53:24;;;;;;;26.25;12.77;;;;;;;18.39;48.43;93543.72;5013514;28;20053;-91
2022/11/03 05:55:50;;;;;;;19.15;11.85;;;;;;;18.39;48.47;93540.22;5032981;28;20734;-88
2022/11/03 05:58:22;;;;;;;34.80;13.32;;;;;;;18.36;48.79;93541.97;5012405;28;20049;-90
2022/11/03 06:00:47;;;;;;;46.10;12.80;;;;;;;18.35;48.11;93540.50;5043575;28;20411;-91
2022/11/03 06:03:15;;;;;;;67.65;25.73;;;;;;;18.36;48.82;93530.28;5024095;28;20068;-89
2022/11/03 06:05:41;;;;;;;100.18;38.35;;;;;;;18.35;48.50;93531.53;5042159;28;20514;-92
2022/11/03 06:08:16;;;;;;;160.48;46.95;;;;;;;18.34;47.56;93533.53;5027904;28;20037;-92
2022/11/03 06:10:45;;;;;;;157.90;35.92;;;;;;;18.27;45.18;93536.81;5003080;28;20141;-91
2022/11/03 06:13:17;;;;;;;48.83;16.77;;;;;;;18.19;44.31;93530.38;4976216;28;20046;-89
2022/11/03 06:15:44;;;;;;;43.88;12.50;;;;;;;18.07;43.54;93529.69;4985620;28;20493;-91
2022/11/03 06:18:39;;;;;;;114.93;25.65;;;;;;;18.12;44.10;93523.47;4939363;28;20555;-90
2022/11/03 06:21:12;;;;;;;243.23;52.50;;;;;;;18.17;44.15;93521.22;4947218;28;20044;-91
2022/11/03 06:23:45;;;;;;;242.63;47.03;;;;;;;18.12;44.31;93530.94;4960473;28;20039;-90
2022/11/03 06:26:18;;;;;;;215.38;42.70;;;;;;;18.07;44.91;93518.00;4953994;28;20036;-91
2022/11/03 06:28:43;;;;;;;340.40;70.70;;;;;;;18.12;44.69;93520.72;4939440;29;20048;-92
2022/11/03 06:31:27;;;;;;;189.00;43.50;;;;;;;18.14;44.74;93518.22;4914341;28;20044;-91
2022/11/03 06:33:54;;;;;;;227.30;58.10;;;;;;;18.21;44.96;93524.41;4943084;28;20048;-90
2022/11/03 06:36:21;;;;;;;223.82;56.03;;;;;;;18.18;44.79;93522.69;4921699;28;20062;-89
2022/11/03 06:38:49;;;;;;;198.50;63.33;;;;;;;18.20;45.07;93520.16;4936673;29;20107;-90
2022/11/03 06:41:24;;;;;;;193.75;61.97;;;;;;;18.24;45.50;93518.66;4930389;28;20537;-91
2022/11/03 06:43:49;;;;;;;174.00;59.00;;;;;;;18.24;45.34;93526.13;4941372;28;20460;-94
2022/11/03 06:46:21;;;;;;;152.68;56.40;;;;;;;18.20;45.67;93518.19;4933632;28;20102;-92
2022/11/03 06:48:46;;;;;;;122.75;47.45;;;;;;;18.16;45.35;93515.00;4946569;28;20099;-91
2022/11/03 06:51:27;;;;;;;154.75;67.57;;;;;;;18.20;45.27;93509.22;4944544;28;20043;-92
2022/11/03 06:53:59;;;;;;;150.60;42.63;;;;;;;18.18;44.20;93503.53;4992869;28;20038;-91
2022/11/03 06:56:31;;;;;;;199.82;41.15;;;;;;;18.05;43.68;93504.84;4947117;28;20055;-91
2022/11/03 06:58:57;;;;;;;64.47;21.83;;;;;;;17.99;43.44;93506.84;5053288;28;20049;-91
2022/11/03 07:01:32;;;;;;;244.32;52.03;;;;;;;17.98;43.75;93505.38;5016003;28;20065;-91
2022/11/03 07:04:02;;;;;;;270.98;55.78;;;;;;;18.05;44.19;93496.63;5014067;28;20029;-92
2022/11/03 07:06:36;;;;;;;201.90;52.00;;;;;;;18.18;44.49;93500.81;5013257;28;20520;-90
2022/11/03 07:09:03;;;;;;;329.30;196.00;;;;;;;18.21;44.51;93491.56;5042161;28;20325;-90
2022/11/03 07:11:42;;;;;;;143.80;47.13;;;;;;;18.24;44.81;93502.25;5008013;28;20041;-91
2022/11/03 07:14:11;;;;;;;129.02;50.03;;;;;;;18.27;44.10;93493.03;5007698;28;20117;-90
2022/11/03 07:16:43;;;;;;;125.65;52.60;;;;;;;18.31;44.96;93507.19;5032465;28;20071;-90
2022/11/03 07:19:20;;;;;;;134.38;55.10;;;;;;;18.38;44.82;93486.75;5036681;28;20041;-87
2022/11/03 07:21:53;;;;;;;128.07;51.78;;;;;;;18.42;44.90;93498.88;5013547;28;20099;-90
2022/11/03 07:24:27;;;;;;;115.47;52.78;;;;;;;18.46;45.21;93490.41;5006758;28;20052;-88
2022/11/03 07:27:07;;;;;;;108.43;50.10;;;;;;;18.47;45.23;93492.63;5036613;28;20547;-90
2022/11/03 07:29:32;;;;;;;98.60;47.03;;;;;;;18.44;45.26;93482.69;5041533;28;20133;-88
2022/11/03 07:31:58;;;;;;;161.73;58.67;;;;;;;18.44;45.23;93484.69;5033921;28;20067;-91
2022/11/03 07:34:25;;;;;;;188.15;69.13;;;;;;;18.41;45.21;93486.44;5033496;28;20044;-91
2022/11/03 07:36:52;;;;;;;136.57;67.15;;;;;;;18.44;45.36;93479.94;5037290;28;20132;-90
2022/11/03 07:39:18;;;;;;;154.65;69.60;;;;;;;18.47;45.52;93476.19;5026911;28;20703;-90
2022/11/03 07:41:44;;;;;;;143.38;67.90;;;;;;;18.46;45.41;93474.72;5033114;28;20041;-90
2022/11/03 07:44:19;;;;;;;134.45;68.25;;;;;;;18.47;45.52;93467.25;5005564;28;20056;-92
2022/11/03 07:46:46;;;;;;;149.18;76.07;;;;;;;18.44;45.78;93466.25;5010253;28;20048;-90
2022/11/03 07:49:26;;;;;;;171.80;80.15;;;;;;;18.48;45.73;93455.03;5031231;28;20074;-91
2022/11/03 07:51:51;;;;;;;192.77;83.45;;;;;;;18.44;45.97;93458.06;5026999;28;20131;-90
2022/11/03 07:54:22;;;;;;;193.75;82.10;;;;;;;18.49;45.89;93453.78;5027232;28;20033;-90
2022/11/03 07:56:50;;;;;;;191.82;80.18;;;;;;;18.48;46.12;93439.38;5025157;28;20051;-90
2022/11/03 07:59:22;;;;;;;178.80;78.57;;;;;;;18.51;45.95;93440.34;5024867;28;20560;-91
2022/11/03 08:01:53;;;;;;;196.90;80.95;;;;;;;18.50;45.92;93444.34;5017026;28;20065;-92
2022/11/03 08:04:27;;;;;;;233.10;99.10;;;;;;;18.53;46.11;93437.09;5016575;28;20122;-91
2022/11/03 08:06:52;;;;;;;216.68;100.00;;;;;;;18.51;45.91;93434.88;5036228;28;20072;-90
2022/11/03 08:09:20;;;;;;;271.05;121.25;;;;;;;18.55;45.94;93432.59;5012407;28;20136;-92
2022/11/03 08:11:48;;;;;;;296.23;144.77;;;;;;;18.57;46.17;93432.09;5024589;28;20056;-90
2022/11/03 08:14:14;;;;;;;304.65;137.77;;;;;;;18.58;46.58;93426.09;5036568;28;20020;-89
2022/11/03 08:16:39;;;;;;;266.45;129.57;;;;;;;18.59;46.35;93433.09;5055191;28;20186;-92
2022/11/03 08:19:05;;;;;;;243.95;111.97;;;;;;;18.57;45.64;93432.09;5013754;28;20041;-92
2022/11/03 08:21:32;;;;;;;165.75;65.28;;;;;;;18.55;45.52;93424.38;5018825;28;20110;-92
2022/11/03 08:24:18;;;;;;;105.13;45.58;;;;;;;18.55;45.49;93404.47;5040862;28;20068;-92
2022/11/03 08:26:43;;;;;;;56.92;25.67;;;;;;;18.50;45.25;93406.75;5024762;28;20040;-91
2022/11/03 08:29:09;;;;;;;53.40;21.95;;;;;;;18.46;45.24;93406.28;5058534;22;20489;-91
2022/11/03 08:31:36;;;;;;;55.55;21.77;;;;;;;18.42;45.45;93416.75;5040291;28;20041;-91
2022/11/03 08:34:03;;;;;;;71.80;25.65;;;;;;;18.41;45.57;93409.06;5006380;28;20045;-91
2022/11/03 08:36:39;;;;;;;46.55;17.70;;;;;;;18.37;45.59;93409.38;5004962;28;20038;-93
2022/11/03 08:39:04;;;;;;;47.10;18.50;;;;;;;18.41;45.33;93403.59;5006508;28;20033;-88
2022/11/03 08:41:39;;;;;;;69.05;19.40;;;;;;;18.34;45.76;93402.16;5028985;28;20067;-93
2022/11/03 08:44:05;;;;;;;60.53;18.08;;;;;;;18.36;45.88;93396.19;5026019;28;20073;-92
2022/11/03 08:46:31;;;;;;;89.18;18.48;;;;;;;18.35;46.05;93389.97;5003962;28;20083;-89
2022/11/03 08:48:57;;;;;;;63.75;16.92;;;;;;;18.34;46.33;93385.00;5024502;28;20136;-92
2022/11/03 08:51:23;;;;;;;73.03;16.35;;;;;;;18.36;46.48;93377.03;5020621;28;20139;-92
2022/11/03 08:53:52;;;;;;;43.72;13.38;;;;;;;18.37;46.21;93373.78;4992900;28;20091;-92
2022/11/03 08:56:18;;;;;;;59.60;19.73;;;;;;;18.33;46.36;93373.31;4985398;28;20048;-90
2022/11/03 08:58:43;;;;;;;47.58;13.32;;;;;;;18.27;46.43;93372.63;5025699;28;20132;-89
2022/11/03 09:01:10;;;;;;;43.90;12.52;;;;;;;18.26;46.76;93370.38;4995859;28;20037;-90
2022/11/03 09:03:35;;;;;;;148.00;26.00;;;;;;;18.34;47.25;93371.31;5043097;28;20062;-91
2022/11/03 09:06:01;;;;;;;41.15;13.23;;;;;;;18.31;47.08;93373.09;5076766;28;20016;-92
2022/11/03 09:08:26;;;;;;;27.33;9.63;;;;;;;18.36;46.88;93371.56;5068745;28;20028;-91
2022/11/03 09:10:53;;;;;;;22.38;8.40;;;;;;;18.37;46.92;93375.78;5053588;28;20040;-91
2022/11/03 09:13:19;;;;;;;22.73;9.18;;;;;;;18.36;46.83;93366.09;5046555;28;20044;-90
2022/11/03 09:15:45;;;;;;;234.95;92.93;;;;;;;18.40;47.17;93366.56;5066064;28;20066;-90
2022/11/03 09:18:10;;;;;;;13.20;8.15;;;;;;;18.36;47.09;93369.56;5068267;28;20044;-91
2022/11/03 09:20:36;;;;;;;100.25;34.70;;;;;;;18.36;47.52;93355.13;5032097;28;20044;-88
2022/11/03 09:23:01;;;;;;;24.60;9.32;;;;;;;18.34;47.69;93352.91;5038411;28;20040;-90
2022/11/03 09:25:27;;;;;;;27.10;9.60;;;;;;;18.35;47.65;93357.13;5047846;28;20040;-88
2022/11/03 09:27:52;;;;;;;25.92;9.32;;;;;;;18.33;47.50;93354.16;5052527;28;20043;-88
2022/11/03 09:30:18;;;;;;;25.63;10.13;;;;;;;18.38;47.77;93350.63;5051713;28;20414;-90
2022/11/03 09:32:43;;;;;;;26.70;8.48;;;;;;;18.36;47.88;93350.41;5069690;28;20044;-90
2022/11/03 09:35:09;;;;;;;43.38;21.45;;;;;;;18.36;47.60;93349.66;5071043;28;20028;-89
2022/11/03 09:37:34;;;;;;;30.75;12.02;;;;;;;18.36;47.83;93350.41;5062657;28;20036;-90
2022/11/03 09:40:01;;;;;;;62.60;15.75;;;;;;;18.36;47.52;93350.41;5077059;28;20048;-90
2022/11/03 09:42:26;;;;;;;55.85;18.60;;;;;;;18.42;47.80;93342.88;5050734;28;20052;-91
2022/11/03 09:44:52;;;;;;;46.50;19.92;;;;;;;18.36;48.02;93342.19;5065139;28;20048;-92
2022/11/03 09:47:28;;;;;;;58.92;24.02;;;;;;;18.34;47.77;93333.00;5053553;28;20035;-91
2022/11/03 09:49:53;;;;;;;84.90;32.03;;;;;;;18.37;47.87;93330.00;5059122;28;20039;-90
2022/11/03 09:52:21;;;;;;;104.93;36.13;;;;;;;18.34;48.03;93335.75;5051273;28;20788;-88
2022/11/03 09:54:47;;;;;;;62.65;29.73;;;;;;;18.35;48.03;93321.56;5070732;28;20044;-90
2022/11/03 09:57:12;;;;;;;98.82;32.78;;;;;;;18.36;48.16;93327.78;5050704;28;20098;-90
2022/11/03 09:59:38;;;;;;;65.95;31.25;;;;;;;18.38;47.74;93322.53;5048781;28;20032;-91
2022/11/03 10:02:09;;;;;;;63.38;26.25;;;;;;;18.39;47.68;93315.81;5064916;28;20788;-90
2022/11/03 10:04:34;;;;;;;70.70;26.02;;;;;;;18.35;48.09;93313.34;5066748;28;20784;-88
2022/11/03 10:07:00;;;;;;;51.17;25.42;;;;;;;18.39;47.95;93313.06;5048913;28;20127;-89
2022/11/03 10:09:25;;;;;;;71.00;25.25;;;;;;;18.35;48.21;93307.88;5049318;28;20038;-89
2022/11/03 10:11:52;;;;;;;66.22;22.30;;;;;;;18.37;48.00;93304.63;5047788;28;20040;-89
2022/11/03 10:14:17;;;;;;;41.05;20.27;;;;;;;18.36;48.24;93301.13;5040659;28;20044;-87
2022/11/03 10:16:49;;;;;;;47.88;21.75;;;;;;;18.36;48.08;93289.44;5053962;28;20051;-88
2022/11/03 10:19:15;;;;;;;66.15;27.13;;;;;;;18.33;48.38;93285.75;5052541;28;20032;-89
2022/11/03 10:21:41;;;;;;;56.22;22.60;;;;;;;18.41;47.55;93288.63;5056417;28;20052;-88
2022/11/03 10:24:11;;;;;;;46.70;19.13;;;;;;;18.34;48.23;93283.75;5051679;28;20041;-90
2022/11/03 10:26:47;;;;;;;45.38;18.63;;;;;;;18.39;47.94;93269.28;5046875;28;20534;-89
2022/11/03 10:29:18;;;;;;;41.90;17.10;;;;;;;18.36;48.05;93267.56;5047242;28;20626;-89
2022/11/03 10:31:44;;;;;;;35.28;17.35;;;;;;;18.41;48.26;93272.22;5056688;28;20040;-88
2022/11/03 10:34:22;;;;;;;46.10;19.60;;;;;;;18.37;47.95;93260.84;5036100;28;20066;-88
2022/11/03 10:36:48;;;;;;;41.65;18.50;;;;;;;18.37;48.28;93264.31;5057908;28;20044;-88
2022/11/03 10:39:27;;;;;;;41.08;18.63;;;;;;;18.36;48.18;93264.81;5064043;28;20097;-90
2022/11/03 10:41:57;;;;;;;36.60;19.40;;;;;;;18.33;48.08;93260.38;5040195;28;20052;-91
2022/11/03 10:44:27;;;;;;;34.28;17.60;;;;;;;18.35;48.31;93247.66;5052676;28;20468;-89
2022/11/03 10:47:00;;;;;;;42.53;16.00;;;;;;;18.35;48.02;93236.72;5049387;28;20044;-88
2022/11/03 10:49:34;;;;;;;38.70;16.00;;;;;;;18.36;48.40;93240.94;5044957;28;20118;-88
2022/11/03 10:52:24;;;;;;;54.42;25.58;;;;;;;18.37;48.31;93236.94;5043855;28;20037;-87
2022/11/03 10:54:51;;;;;;;47.58;20.33;;;;;;;18.34;48.35;93240.72;5084939;28;20071;-88
2022/11/03 10:57:16;;;;;;;36.67;17.48;;;;;;;18.32;48.30;93228.78;5061538;28;20067;-92
2022/11/03 10:59:42;;;;;;;42.88;19.42;;;;;;;18.32;48.54;93234.25;5032757;28;20044;-90
2022/11/03 11:02:21;;;;;;;43.33;24.40;;;;;;;18.30;48.42;93218.34;5044577;28;20044;-90
2022/11/03 11:05:00;;;;;;;38.97;22.40;;;;;;;18.34;48.20;93204.38;5045980;28;20044;-88
2022/11/03 11:07:37;;;;;;;42.15;21.30;;;;;;;18.33;48.27;93203.66;5020053;28;20044;-88
2022/11/03 11:10:07;;;;;;;45.70;25.92;;;;;;;18.32;48.04;93204.91;5035708;28;20101;-88
2022/11/03 11:12:33;;;;;;;48.70;27.50;;;;;;;18.35;47.84;93197.66;5018610;28;20086;-89
2022/11/03 11:15:01;;;;;;;47.90;29.90;;;;;;;18.33;48.51;93197.44;5005858;28;20043;-89
2022/11/03 11:17:45;;;;;;;61.53;33.63;;;;;;;18.35;48.48;93195.66;5017463;28;20076;-89
2022/11/03 11:20:27;;;;;;;537.38;479.95;;;;;;;18.36;48.30;93201.88;5029136;28;20037;-91
2022/11/03 11:22:53;;;;;;;367.90;282.67;;;;;;;18.34;48.15;93191.44;5030346;28;20041;-89
2022/11/03 11:25:19;;;;;;;54.25;30.83;;;;;;;18.39;48.20;93182.44;4993615;28;20596;-90
2022/11/03 11:27:44;;;;;;;39.85;24.38;;;;;;;18.37;47.90;93182.22;4996811;28;20045;-89
2022/11/03 11:30:18;;;;;;;34.10;23.23;;;;;;;18.37;47.70;93173.25;5032698;28;20115;-89
2022/11/03 11:32:43;;;;;;;37.67;22.55;;;;;;;18.34;48.25;93175.03;5034862;28;20047;-90
2022/11/03 11:35:19;;;;;;;28.20;18.77;;;;;;;18.36;48.20;93175.25;5052250;28;20041;-90
2022/11/03 11:37:44;;;;;;;23.40;17.05;;;;;;;18.37;47.83;93171.25;5023440;28;20060;-89
2022/11/03 11:40:33;;;;;;;24.55;15.65;;;;;;;18.37;48.01;93171.25;5001647;28;20654;-90
2022/11/03 11:43:01;;;;;;;21.42;13.68;;;;;;;18.39;48.13;93159.81;5038614;28;20718;-91
2022/11/03 11:46:05;;;;;;;23.33;14.05;;;;;;;18.39;48.00;93163.28;5049791;28;20047;-90
2022/11/03 11:48:30;;;;;;;20.85;12.73;;;;;;;18.37;48.01;93152.09;5068307;28;20044;-90
2022/11/03 11:50:59;;;;;;;23.42;12.02;;;;;;;18.36;47.83;93149.88;5040693;28;20063;-91
2022/11/03 11:53:25;;;;;;;32.50;20.55;;;;;;;18.34;47.84;93144.94;5035490;28;20066;-88
2022/11/03 11:55:54;;;;;;;31.50;14.65;;;;;;;18.38;48.01;93133.69;5060028;28;20040;-90